Time;durP1;ratioP1;P1;durP2;ratioP2;P2;SDS_P1;SDS_P2;PMS_P1;PMS_P2;Temp;Humidity;BMP_temperature;BMP_pressure;BME280_temperature;BME280_humidity;BME280_pressure;Samples;Min_cycle;Max_cycle;Signal;HPM_P1;HPM_P2
2024/04/09 00:00:21;;;;;;;19.53;6.10;;;18.00;1.00;;;;;;5310615;27;20357;-81
2024/04/09 00:02:47;;;;;;;18.23;5.95;;;18.20;1.00;;;;;;5308987;27;20362;-81
2024/04/09 00:05:13;;;;;;;19.25;5.55;;;18.30;1.00;;;;;;5308689;27;20336;-81
2024/04/09 00:07:39;;;;;;;16.77;5.93;;;18.00;1.00;;;;;;5309741;27;20755;-81
2024/04/09 00:10:06;;;;;;;19.40;6.00;;;17.60;1.00;;;;;;5310337;27;20434;-81
2024/04/09 00:12:36;;;;;;;16.13;5.72;;;17.80;1.00;;;;;;5310623;27;20335;-81
2024/04/09 00:15:07;;;;;;;17.00;5.22;;;17.80;1.00;;;;;;5309213;27;20331;-80
2024/04/09 00:17:38;;;;;;;23.08;5.40;;;18.40;1.00;;;;;;5308696;27;20372;-80
2024/04/09 00:20:09;;;;;;;18.60;5.53;;;19.20;1.00;;;;;;5306931;27;20436;-80
2024/04/09 00:22:35;;;;;;;20.13;5.40;;;18.90;1.00;;;;;;5307070;27;20340;-80
2024/04/09 00:25:01;;;;;;;18.00;5.50;;;18.30;1.00;;;;;;5307459;27;20366;-81
2024/04/09 00:27:27;;;;;;;18.65;5.43;;;17.90;1.00;;;;;;5305909;27;20343;-81
2024/04/09 00:29:52;;;;;;;16.03;5.10;;;17.90;1.00;;;;;;5306529;27;20786;-81
2024/04/09 00:32:18;;;;;;;14.63;4.83;;;18.40;1.00;;;;;;5309517;26;20335;-81
2024/04/09 00:34:43;;;;;;;19.53;6.00;;;18.20;1.00;;;;;;5306240;27;20332;-80
2024/04/09 00:37:09;;;;;;;11.63;4.40;;;18.50;1.00;;;;;;5307969;27;20331;-81
2024/04/09 00:39:35;;;;;;;16.47;5.60;;;18.40;1.00;;;;;;5306628;27;20839;-81
2024/04/09 00:42:02;;;;;;;17.38;4.68;;;19.50;1.00;;;;;;5306919;27;20325;-80
2024/04/09 00:44:29;;;;;;;19.20;4.33;;;19.20;1.00;;;;;;5306194;27;20351;-81
2024/04/09 00:46:56;;;;;;;17.40;4.38;;;19.00;1.00;;;;;;5308348;27;20363;-81
2024/04/09 00:49:22;;;;;;;15.77;4.72;;;19.10;1.00;;;;;;5307014;27;20625;-80
2024/04/09 00:51:52;;;;;;;16.25;5.30;;;18.40;1.00;;;;;;5306959;27;20343;-81
2024/04/09 00:54:18;;;;;;;17.88;4.10;;;18.20;1.00;;;;;;5307673;27;20675;-81
2024/04/09 00:56:45;;;;;;;14.70;4.20;;;19.30;1.00;;;;;;5308246;27;21003;-81
2024/04/09 00:59:12;;;;;;;17.08;4.70;;;20.20;1.00;;;;;;5306765;27;20390;-81
2024/04/09 01:01:42;;;;;;;18.23;5.05;;;19.70;1.00;;;;;;5308692;27;20379;-80
2024/04/09 01:04:07;;;;;;;14.65;4.47;;;20.20;1.00;;;;;;5308288;27;20391;-81
2024/04/09 01:06:34;;;;;;;18.77;4.10;;;20.20;1.00;;;;;;5309470;27;20323;-81
2024/04/09 01:08:59;;;;;;;17.00;4.70;;;20.20;1.00;;;;;;5309941;27;20379;-81
2024/04/09 01:11:25;;;;;;;10.45;3.67;;;21.20;1.00;;;;;;5310863;27;20391;-81
2024/04/09 01:13:53;;;;;;;16.20;4.70;;;20.90;1.00;;;;;;5313394;27;20359;-80
2024/04/09 01:16:18;;;;;;;18.55;4.43;;;20.70;1.00;;;;;;5310036;27;20331;-80
2024/04/09 01:18:44;;;;;;;18.85;5.22;;;20.70;1.00;;;;;;5312362;27;20376;-80
2024/04/09 01:21:10;;;;;;;13.87;4.70;;;21.50;1.00;;;;;;5310757;27;20500;-81
2024/04/09 01:23:36;;;;;;;18.42;4.70;;;21.20;1.00;;;;;;5303740;27;20375;-81
2024/04/09 01:26:02;;;;;;;13.63;4.15;;;21.20;1.00;;;;;;5311707;27;20820;-80
2024/04/09 01:28:28;;;;;;;12.60;3.70;;;22.70;1.00;;;;;;5313132;27;20363;-81
2024/04/09 01:30:55;;;;;;;12.20;3.60;;;21.20;1.00;;;;;;5326655;22;20355;-84
2024/04/09 01:33:21;;;;;;;16.35;4.80;;;21.10;1.00;;;;;;5310142;27;20346;-82
2024/04/09 01:35:47;;;;;;;16.40;4.30;;;21.00;1.00;;;;;;5317271;27;20362;-83
2024/04/09 01:38:13;;;;;;;14.20;3.13;;;21.20;1.00;;;;;;5282022;27;20322;-83
2024/04/09 01:40:39;;;;;;;15.97;4.47;;;;;;;;;;5293142;27;20355;-84
2024/04/09 01:43:04;;;;;;;12.60;3.35;;;21.00;1.00;;;;;;5292329;27;20422;-82
2024/04/09 01:45:30;;;;;;;16.42;4.45;;;21.40;1.00;;;;;;5289285;27;20786;-83
2024/04/09 01:47:56;;;;;;;15.13;3.77;;;20.60;1.00;;;;;;5282437;27;20330;-85
2024/04/09 01:50:21;;;;;;;11.13;3.90;;;21.90;1.00;;;;;;5278074;27;20838;-84
2024/04/09 01:52:48;;;;;;;12.63;3.40;;;20.80;1.00;;;;;;5280269;27;20362;-85
2024/04/09 01:55:14;;;;;;;10.48;3.22;;;22.70;1.00;;;;;;5278059;27;20386;-82
2024/04/09 01:57:40;;;;;;;10.30;3.00;;;21.80;1.00;;;;;;5279197;27;20338;-82
2024/04/09 02:00:19;;;;;;;12.57;4.28;;;20.70;1.00;;;;;;5281297;27;20338;-81
2024/04/09 02:02:46;;;;;;;14.80;3.60;;;20.80;1.00;;;;;;5278857;27;20373;-83
2024/04/09 02:05:13;;;;;;;15.60;3.70;;;22.00;1.00;;;;;;5280842;27;20878;-83
2024/04/09 02:07:39;;;;;;;13.20;3.42;;;20.90;1.00;;;;;;5278271;27;20396;-83
2024/04/09 02:10:05;;;;;;;15.13;3.58;;;20.70;1.00;;;;;;5283359;27;20441;-82
2024/04/09 02:12:31;;;;;;;8.70;2.97;;;21.10;1.00;;;;;;5289174;27;20397;-83
2024/04/09 02:14:56;;;;;;;16.87;3.60;;;22.90;1.00;;;;;;5288950;27;20346;-83
2024/04/09 02:17:22;;;;;;;13.70;3.53;;;22.20;1.00;;;;;;5279449;27;20354;-84
2024/04/09 02:19:47;;;;;;;10.87;3.53;;;22.50;1.00;;;;;;5280010;27;20486;-84
2024/04/09 02:22:13;;;;;;;13.77;3.80;;;20.10;1.00;;;;;;5279566;27;20350;-84
2024/04/09 02:24:38;;;;;;;12.75;3.10;;;22.50;1.00;;;;;;5303169;27;20340;-84
2024/04/09 02:27:04;;;;;;;14.50;3.83;;;21.70;1.00;;;;;;5304432;27;20342;-83
2024/04/09 02:29:30;;;;;;;11.82;3.03;;;22.20;1.00;;;;;;5280083;27;20539;-84
2024/04/09 02:31:56;;;;;;;13.75;3.30;;;20.60;1.00;;;;;;5277901;27;20354;-84
2024/04/09 02:34:25;;;;;;;16.67;4.20;;;21.00;1.00;;;;;;5277869;27;20346;-83
2024/04/09 02:36:51;;;;;;;16.92;3.72;;;20.40;1.00;;;;;;5277183;27;20338;-83
2024/04/09 02:39:18;;;;;;;9.05;2.88;;;21.20;1.00;;;;;;5280021;27;20374;-83
2024/04/09 02:41:43;;;;;;;14.77;3.45;;;20.00;1.00;;;;;;5292150;27;20335;-84
2024/04/09 02:44:09;;;;;;;12.90;3.80;;;22.90;1.00;;;;;;5291642;27;20364;-84
2024/04/09 02:46:35;;;;;;;16.30;3.50;;;20.00;1.00;;;;;;5289480;27;20334;-85
2024/04/09 02:49:03;;;;;;;11.73;3.80;;;21.00;1.00;;;;;;5291526;27;20373;-85
2024/04/09 02:51:29;;;;;;;12.20;2.95;;;20.30;1.00;;;;;;5291370;27;20326;-83
2024/04/09 02:53:54;;;;;;;14.32;3.40;;;20.00;1.00;;;;;;5293329;27;20333;-84
2024/04/09 02:56:20;;;;;;;9.93;3.03;;;20.30;1.00;;;;;;5292098;27;20366;-86
2024/04/09 02:58:45;;;;;;;15.70;3.40;;;22.50;1.00;;;;;;5286474;27;20825;-84
2024/04/09 03:01:11;;;;;;;12.07;3.30;;;20.10;1.00;;;;;;5289495;27;20346;-84
2024/04/09 03:03:38;;;;;;;13.20;2.93;;;21.00;1.00;;;;;;5294952;27;20363;-85
2024/04/09 03:06:14;;;;;;;9.80;3.00;;;19.60;1.00;;;;;;5292854;27;20371;-82
2024/04/09 03:08:40;;;;;;;13.32;2.90;;;22.10;1.00;;;;;;5292300;27;20327;-85
2024/04/09 03:11:18;;;;;;;13.63;3.27;;;19.80;1.00;;;;;;5295063;27;20419;-85
2024/04/09 03:13:45;;;;;;;10.70;3.80;;;19.50;1.00;;;;;;5290621;27;20338;-84
2024/04/09 03:16:16;;;;;;;11.18;2.97;;;19.40;1.00;;;;;;5288022;27;20518;-84
2024/04/09 03:18:42;;;;;;;9.00;2.80;;;19.20;1.00;;;;;;5285065;27;20338;-84
2024/04/09 03:21:08;;;;;;;10.82;2.90;;;19.90;1.00;;;;;;5281030;27;20402;-85
2024/04/09 03:23:34;;;;;;;13.90;3.22;;;19.30;1.00;;;;;;5288972;27;20392;-85
2024/04/09 03:26:00;;;;;;;10.63;3.50;;;19.00;1.00;;;;;;5314097;26;20364;-85
2024/04/09 03:28:26;;;;;;;12.30;3.60;;;19.60;1.00;;;;;;5290241;26;20742;-84
2024/04/09 03:30:56;;;;;;;10.00;3.60;;;19.90;1.00;;;;;;5277589;27;20407;-85
2024/04/09 03:33:22;;;;;;;15.90;3.40;;;;;;;;;;5278986;27;20402;-85
2024/04/09 03:35:57;;;;;;;11.00;3.42;;;19.90;1.00;;;;;;5279865;27;20350;-85
2024/04/09 03:38:23;;;;;;;9.55;3.60;;;19.10;1.00;;;;;;5283917;27;20431;-83
2024/04/09 03:40:55;;;;;;;13.00;3.50;;;19.30;1.00;;;;;;5290750;27;20326;-84
2024/04/09 03:43:21;;;;;;;9.50;3.13;;;21.50;1.00;;;;;;5286711;27;20884;-86
2024/04/09 03:46:13;;;;;;;13.83;3.47;;;21.40;1.00;;;;;;5280991;27;20361;-85
2024/04/09 03:48:43;;;;;;;12.80;3.42;;;19.80;1.00;;;;;;5278153;27;20329;-85
2024/04/09 03:51:10;;;;;;;10.07;3.25;;;19.50;1.00;;;;;;5278860;27;20346;-84
2024/04/09 03:53:37;;;;;;;13.43;3.58;;;19.30;1.00;;;;;;5279384;27;20368;-85
2024/04/09 03:56:04;;;;;;;8.23;2.70;;;19.40;1.00;;;;;;5277834;27;20338;-86
2024/04/09 03:58:32;;;;;;;11.57;3.05;;;18.40;1.00;;;;;;5286576;27;20818;-83
2024/04/09 04:01:04;;;;;;;11.43;3.60;;;19.60;1.00;;;;;;5288828;27;20726;-84
2024/04/09 04:03:31;;;;;;;10.23;2.77;;;19.50;1.00;;;;;;5290416;27;20352;-84
2024/04/09 04:05:59;;;;;;;10.80;2.97;;;19.00;1.00;;;;;;5279607;27;20342;-83
2024/04/09 04:08:35;;;;;;;10.43;3.08;;;18.80;1.00;;;;;;5280255;27;20397;-84
2024/04/09 04:11:06;;;;;;;11.00;2.88;;;20.50;1.00;;;;;;5279175;27;20338;-83
2024/04/09 04:13:33;;;;;;;6.90;2.90;;;18.90;1.00;;;;;;5277242;27;20390;-84
2024/04/09 04:16:04;;;;;;;11.10;2.72;;;18.20;1.00;;;;;;5277347;27;20406;-84
2024/04/09 04:18:35;;;;;;;8.38;2.58;;;21.20;1.00;;;;;;5278621;27;20416;-83
2024/04/09 04:21:01;;;;;;;10.15;3.13;;;18.60;1.00;;;;;;5278466;27;20334;-83
2024/04/09 04:23:27;;;;;;;10.43;3.10;;;;;;;;;;5277439;27;20342;-84
2024/04/09 04:26:24;;;;;;;7.60;2.42;;;18.50;1.00;;;;;;5279612;27;20323;-82
2024/04/09 04:28:50;;;;;;;7.38;2.30;;;18.70;1.00;;;;;;5276938;27;20346;-84
2024/04/09 04:31:18;;;;;;;10.02;2.50;;;17.90;1.00;;;;;;5279774;27;20452;-82
2024/04/09 04:33:45;;;;;;;12.30;2.45;;;20.70;1.00;;;;;;5279265;27;20354;-83
2024/04/09 04:36:12;;;;;;;8.73;2.53;;;18.30;1.00;;;;;;5279937;27;20334;-83
2024/04/09 04:38:39;;;;;;;7.97;2.92;;;18.20;1.00;;;;;;5288276;27;20406;-83
2024/04/09 04:41:04;;;;;;;9.40;3.47;;;17.80;1.00;;;;;;5278285;27;20906;-82
2024/04/09 04:43:31;;;;;;;20.73;2.90;;;18.00;1.00;;;;;;5281397;27;20354;-85
2024/04/09 04:45:56;;;;;;;15.43;3.42;;;19.20;1.00;;;;;;5281888;27;20342;-84
2024/04/09 04:48:22;;;;;;;10.03;2.73;;;17.80;1.00;;;;;;5282692;27;20511;-82
2024/04/09 04:50:49;;;;;;;7.97;2.40;;;18.00;1.00;;;;;;5278217;27;20659;-83
2024/04/09 04:53:15;;;;;;;12.88;3.10;;;19.00;1.00;;;;;;5281139;27;20334;-83
2024/04/09 04:55:41;;;;;;;7.75;3.00;;;20.40;1.00;;;;;;5282934;27;20434;-86
2024/04/09 04:58:07;;;;;;;7.18;2.70;;;17.90;1.00;;;;;;5282904;27;20385;-84
2024/04/09 05:00:35;;;;;;;12.23;3.47;;;18.20;1.00;;;;;;5281431;27;20757;-85
2024/04/09 05:03:01;;;;;;;11.88;2.88;;;17.90;1.00;;;;;;5281998;27;20346;-83
2024/04/09 05:05:28;;;;;;;8.88;2.60;;;17.80;1.00;;;;;;5281474;27;20410;-84
2024/04/09 05:07:54;;;;;;;7.97;2.80;;;19.10;1.00;;;;;;5281537;27;20342;-84
2024/04/09 05:10:20;;;;;;;12.85;2.85;;;19.30;1.00;;;;;;5282204;27;20834;-84
2024/04/09 05:12:47;;;;;;;9.90;2.65;;;17.30;1.00;;;;;;5281572;27;20390;-84
2024/04/09 05:15:13;;;;;;;8.48;2.30;;;17.70;1.00;;;;;;5280275;27;20353;-83
2024/04/09 05:17:39;;;;;;;11.53;2.60;;;20.10;1.00;;;;;;5281336;27;20449;-84
2024/04/09 05:20:09;;;;;;;9.52;2.88;;;17.90;1.00;;;;;;5281521;27;20338;-85
2024/04/09 05:22:36;;;;;;;9.00;2.25;;;17.50;1.00;;;;;;5278959;27;20736;-85
2024/04/09 05:25:02;;;;;;;9.15;2.80;;;17.60;1.00;;;;;;5310744;27;20454;-82
2024/04/09 05:27:27;;;;;;;10.33;3.10;;;17.40;1.00;;;;;;5298331;27;20349;-84
2024/04/09 05:29:54;;;;;;;6.97;2.07;;;18.30;1.00;;;;;;5295170;27;20338;-83
2024/04/09 05:32:19;;;;;;;10.38;2.55;;;17.10;1.00;;;;;;5289223;27;20420;-82
2024/04/09 05:34:45;;;;;;;9.80;2.87;;;16.40;1.00;;;;;;5282603;27;20342;-84
2024/04/09 05:37:11;;;;;;;6.72;2.42;;;19.70;1.00;;;;;;5280313;27;20341;-84
2024/04/09 05:39:36;;;;;;;10.82;2.63;;;17.50;1.00;;;;;;5282137;27;20342;-83
2024/04/09 05:42:02;;;;;;;5.80;2.10;;;17.00;1.00;;;;;;5285661;27;20414;-83
2024/04/09 05:44:27;;;;;;;11.95;2.78;;;17.80;1.00;;;;;;5289463;27;20371;-82
2024/04/09 05:46:53;;;;;;;8.13;2.45;;;17.80;1.00;;;;;;5288053;27;20374;-85
2024/04/09 05:49:21;;;;;;;8.17;2.30;;;17.10;1.00;;;;;;5290180;27;20378;-81
2024/04/09 05:51:47;;;;;;;7.75;2.30;;;17.10;1.00;;;;;;5274163;27;20435;-83
2024/04/09 05:54:13;;;;;;;8.60;2.40;;;17.30;1.00;;;;;;5264466;27;20757;-83
2024/04/09 05:56:39;;;;;;;8.30;2.60;;;17.50;1.00;;;;;;5247787;27;20381;-84
2024/04/09 05:59:05;;;;;;;5.13;1.90;;;17.50;1.00;;;;;;5255861;27;20334;-84
2024/04/09 06:01:30;;;;;;;8.77;2.10;;;17.40;1.00;;;;;;5303006;27;20361;-83
2024/04/09 06:03:56;;;;;;;8.68;3.00;;;17.40;1.00;;;;;;5262942;27;20440;-82
2024/04/09 06:06:21;;;;;;;6.63;2.42;;;17.30;1.00;;;;;;5249630;27;20421;-83
2024/04/09 06:08:47;;;;;;;5.50;1.97;;;17.10;1.00;;;;;;5276072;27;20374;-82
2024/04/09 06:11:12;;;;;;;6.43;1.80;;;16.60;1.00;;;;;;5291510;27;20342;-84
2024/04/09 06:13:38;;;;;;;2.53;0.77;;;16.30;1.00;;;;;;5286963;27;20355;-83
2024/04/09 06:16:04;;;;;;;1.97;0.93;;;15.40;1.00;;;;;;5278454;27;20345;-82
2024/04/09 06:18:30;;;;;;;2.28;1.13;;;15.00;1.00;;;;;;5275193;27;20345;-82
2024/04/09 06:20:55;;;;;;;2.85;0.90;;;14.40;1.00;;;;;;5280829;27;20841;-81
2024/04/09 06:23:21;;;;;;;2.67;0.93;;;14.20;1.00;;;;;;5274957;27;20370;-82
2024/04/09 06:26:03;;;;;;;1.50;0.70;;;14.90;1.00;;;;;;5301343;27;20974;-82
2024/04/09 06:28:28;;;;;;;1.00;0.70;;;13.90;1.00;;;;;;5250788;27;20430;-82
2024/04/09 06:30:54;;;;;;;1.70;0.50;;;14.30;1.00;;;;;;5266472;27;20356;-80
2024/04/09 06:33:20;;;;;;;2.08;0.80;;;14.70;1.00;;;;;;5254073;27;20365;-83
2024/04/09 06:35:46;;;;;;;1.13;0.60;;;13.90;1.00;;;;;;5261031;27;20344;-85
2024/04/09 06:38:21;;;;;;;1.63;0.40;;;;;;;;;;5271506;27;20338;-85
2024/04/09 06:40:47;;;;;;;1.05;0.52;;;13.10;1.00;;;;;;5285272;27;20377;-80
2024/04/09 06:43:13;;;;;;;1.30;0.30;;;13.50;1.00;;;;;;5279002;27;20337;-82
2024/04/09 06:45:40;;;;;;;2.20;0.50;;;13.00;1.00;;;;;;5268956;27;20462;-82
2024/04/09 06:48:06;;;;;;;1.80;0.40;;;13.00;1.00;;;;;;5259036;27;20772;-82
2024/04/09 06:50:32;;;;;;;2.10;0.50;;;12.70;1.00;;;;;;5276020;27;20346;-83
2024/04/09 06:52:58;;;;;;;1.13;0.40;;;11.90;1.00;;;;;;5279946;27;20775;-82
2024/04/09 06:55:23;;;;;;;0.70;0.40;;;11.60;1.00;;;;;;5277483;27;20331;-82
2024/04/09 06:57:49;;;;;;;0.57;0.40;;;11.30;1.00;;;;;;5280868;27;20383;-80
2024/04/09 07:00:15;;;;;;;0.70;0.40;;;11.40;1.00;;;;;;5273846;27;20427;-83
2024/04/09 07:02:41;;;;;;;1.13;0.40;;;11.50;1.00;;;;;;5286720;27;20334;-81
2024/04/09 07:05:08;;;;;;;0.50;0.30;;;11.20;1.00;;;;;;5284600;27;20420;-82
2024/04/09 07:07:34;;;;;;;1.00;0.30;;;11.60;1.00;;;;;;5268538;27;20381;-85
2024/04/09 07:10:01;;;;;;;0.70;0.40;;;;;;;;;;5278543;27;20822;-84
2024/04/09 07:12:27;;;;;;;1.13;0.40;;;11.60;99.90;;;;;;5279200;27;20385;-83
2024/04/09 07:14:53;;;;;;;0.70;0.30;;;11.30;94.30;;;;;;5280579;27;20418;-83
2024/04/09 07:17:19;;;;;;;0.47;0.32;;;11.30;6.80;;;;;;5274984;27;20338;-83
2024/04/09 07:19:45;;;;;;;2.20;0.50;;;10.80;1.00;;;;;;5277717;27;20370;-83
2024/04/09 07:22:11;;;;;;;1.60;0.60;;;10.90;1.00;;;;;;5279991;27;20346;-82
2024/04/09 07:24:37;;;;;;;2.50;0.60;;;11.10;1.00;;;;;;5309171;27;20347;-84
2024/04/09 07:27:03;;;;;;;1.20;0.40;;;10.90;1.00;;;;;;5317123;27;20403;-84
2024/04/09 07:29:31;;;;;;;0.80;0.50;;;11.00;1.00;;;;;;5314732;26;20339;-83
2024/04/09 07:31:56;;;;;;;1.05;0.55;;;11.10;1.00;;;;;;5325104;21;20939;-83
2024/04/09 07:34:23;;;;;;;0.70;0.40;;;11.10;1.00;;;;;;5277575;27;20398;-81
2024/04/09 07:36:49;;;;;;;0.40;0.30;;;11.00;1.00;;;;;;5279822;27;20672;-83
2024/04/09 07:39:14;;;;;;;0.50;0.40;;;11.00;1.00;;;;;;5278103;27;20330;-83
2024/04/09 07:41:41;;;;;;;0.65;0.30;;;10.90;1.00;;;;;;5283462;27;20373;-82
2024/04/09 07:44:07;;;;;;;0.70;0.30;;;11.10;1.00;;;;;;5280050;27;20685;-82
2024/04/09 07:46:33;;;;;;;0.60;0.40;;;11.80;1.00;;;;;;5281443;27;20326;-82
2024/04/09 07:49:00;;;;;;;0.45;0.30;;;11.10;1.00;;;;;;5280436;27;20326;-82
2024/04/09 07:51:27;;;;;;;1.90;0.40;;;11.20;1.00;;;;;;5281730;27;20345;-82
2024/04/09 07:53:52;;;;;;;0.47;0.35;;;11.40;1.00;;;;;;5279204;27;20330;-82
2024/04/09 07:56:18;;;;;;;1.20;0.30;;;11.40;1.00;;;;;;5279165;27;20334;-83
2024/04/09 07:58:44;;;;;;;0.50;0.30;;;9.70;1.00;;;;;;5279226;27;20342;-84
2024/04/09 08:01:10;;;;;;;2.10;0.40;;;11.30;1.00;;;;;;5279734;27;20370;-86
2024/04/09 08:03:35;;;;;;;1.30;0.73;;;11.20;1.00;;;;;;5277908;27;20377;-84
2024/04/09 08:06:02;;;;;;;0.47;0.30;;;11.10;1.00;;;;;;5278047;27;20338;-83
2024/04/09 08:08:28;;;;;;;0.70;0.40;;;11.20;1.00;;;;;;5279233;27;20334;-83
2024/04/09 08:10:54;;;;;;;0.60;0.40;;;11.10;1.00;;;;;;5279090;27;20428;-84
2024/04/09 08:13:19;;;;;;;8.70;0.40;;;11.00;1.00;;;;;;5279618;27;20450;-84
2024/04/09 08:15:45;;;;;;;0.40;0.30;;;12.30;1.00;;;;;;5280196;27;20416;-88
2024/04/09 08:18:10;;;;;;;0.80;0.60;;;10.60;1.00;;;;;;5280528;27;20822;-83
2024/04/09 08:20:36;;;;;;;0.50;0.40;;;10.70;1.00;;;;;;5282677;27;20673;-83
2024/04/09 08:23:03;;;;;;;1.87;0.50;;;11.20;1.00;;;;;;5284937;27;20448;-85
2024/04/09 08:25:29;;;;;;;1.30;0.40;;;11.20;1.00;;;;;;5316551;27;20383;-83
2024/04/09 08:27:55;;;;;;;0.70;0.47;;;10.50;1.00;;;;;;5318402;27;20335;-84
2024/04/09 08:30:26;;;;;;;0.60;0.40;;;10.60;1.00;;;;;;5320212;27;20347;-90
2024/04/09 08:32:53;;;;;;;0.77;0.50;;;;;;;;;;5317204;26;20425;-87
2024/04/09 08:35:19;;;;;;;0.70;0.50;;;;;;;;;;5319475;27;20381;-86
2024/04/09 08:37:46;;;;;;;2.70;0.52;;;10.30;1.00;;;;;;5321028;27;20434;-85
2024/04/09 08:40:13;;;;;;;1.23;0.50;;;9.80;7.10;;;;;;5323167;26;20367;-86
2024/04/09 08:42:39;;;;;;;1.00;0.43;;;10.40;1.00;;;;;;5316642;26;20355;-85
2024/04/09 08:45:12;;;;;;;2.45;0.70;;;10.10;1.00;;;;;;5317630;27;20450;-87
2024/04/09 08:47:38;;;;;;;1.30;0.50;;;10.40;8.20;;;;;;5330520;26;20335;-85
2024/04/09 08:50:04;;;;;;;0.80;0.60;;;9.40;1.00;;;;;;5314856;26;20331;-84
2024/04/09 08:52:32;;;;;;;1.42;0.70;;;10.10;1.00;;;;;;5314588;26;20784;-81
2024/04/09 08:54:58;;;;;;;0.82;0.60;;;;;;;;;;5316152;27;20413;-82
2024/04/09 08:57:23;;;;;;;1.25;0.50;;;9.80;1.00;;;;;;5318530;26;20897;-83
2024/04/09 08:59:50;;;;;;;0.60;0.50;;;9.60;1.00;;;;;;5320218;27;20335;-84
2024/04/09 09:02:16;;;;;;;1.70;0.80;;;;;;;;;;5316776;26;20728;-84
2024/04/09 09:04:43;;;;;;;1.10;0.60;;;9.40;1.00;;;;;;5314325;27;20415;-86
2024/04/09 09:07:13;;;;;;;1.27;0.60;;;9.70;1.00;;;;;;5316666;27;20715;-85
2024/04/09 09:09:39;;;;;;;0.68;0.60;;;9.30;1.00;;;;;;5315921;27;20347;-86
2024/04/09 09:12:06;;;;;;;1.70;0.60;;;9.50;1.00;;;;;;5315003;26;20435;-86
2024/04/09 09:14:32;;;;;;;1.30;0.55;;;;;;;;;;5315882;26;20747;-86
2024/04/09 09:17:05;;;;;;;0.80;0.60;;;9.30;1.00;;;;;;5325072;27;20369;-85
2024/04/09 09:19:34;;;;;;;1.70;0.70;;;9.50;1.00;;;;;;5324480;26;20359;-84
2024/04/09 09:22:12;;;;;;;0.82;0.63;;;9.00;1.00;;;;;;5313464;26;20822;-84
2024/04/09 09:24:38;;;;;;;1.75;1.00;;;9.50;1.00;;;;;;5287598;27;20372;-83
2024/04/09 09:27:05;;;;;;;2.95;0.60;;;9.50;12.80;;;;;;5280300;27;20367;-85
2024/04/09 09:29:32;;;;;;;1.10;0.43;;;9.30;8.80;;;;;;5281653;27;20354;-85
2024/04/09 09:31:59;;;;;;;0.90;0.50;;;9.20;88.20;;;;;;5280609;27;20353;-84
2024/04/09 09:34:46;;;;;;;1.10;0.60;;;8.60;46.90;;;;;;5284086;27;20401;-84
2024/04/09 09:37:12;;;;;;;1.48;0.70;;;9.20;48.10;;;;;;5283989;27;20376;-86
2024/04/09 09:39:41;;;;;;;1.70;0.60;;;9.10;61.20;;;;;;5281249;27;20382;-85
2024/04/09 09:42:10;;;;;;;1.25;0.85;;;9.50;58.00;;;;;;5280409;27;20342;-85
2024/04/09 09:44:37;;;;;;;0.80;0.60;;;9.30;28.10;;;;;;5281457;27;20444;-85
2024/04/09 09:47:04;;;;;;;0.73;0.50;;;8.50;33.20;;;;;;5280704;27;20346;-84
2024/04/09 09:49:30;;;;;;;0.70;0.60;;;;;;;;;;5281792;27;20407;-85
2024/04/09 09:51:56;;;;;;;2.10;0.50;;;9.10;94.50;;;;;;5279887;27;20846;-84
2024/04/09 09:54:23;;;;;;;2.45;0.70;;;9.00;6.30;;;;;;5281973;27;20382;-85
2024/04/09 09:56:52;;;;;;;0.90;0.60;;;9.40;29.00;;;;;;5278306;27;20409;-86
2024/04/09 09:59:21;;;;;;;1.80;0.50;;;8.50;26.10;;;;;;5279135;27;20335;-84
2024/04/09 10:01:49;;;;;;;1.70;0.60;;;9.00;32.20;;;;;;5279023;27;20346;-85
2024/04/09 10:04:16;;;;;;;0.73;0.45;;;9.00;47.70;;;;;;5278521;27;20845;-85
2024/04/09 10:06:41;;;;;;;2.05;0.50;;;8.90;46.90;;;;;;5280192;27;20382;-87
2024/04/09 10:09:07;;;;;;;1.83;0.60;;;8.90;62.50;;;;;;5280417;27;20663;-87
2024/04/09 10:11:43;;;;;;;0.70;0.40;;;8.90;53.40;;;;;;5277611;27;20428;-84
2024/04/09 10:14:08;;;;;;;0.60;0.40;;;8.30;21.60;;;;;;5279917;27;20350;-83
2024/04/09 10:16:34;;;;;;;1.00;0.90;;;9.10;56.80;;;;;;5280963;27;20335;-86
2024/04/09 10:19:01;;;;;;;1.50;0.50;;;9.20;54.30;;;;;;5279735;27;20334;-83
2024/04/09 10:21:30;;;;;;;1.70;0.40;;;8.80;43.10;;;;;;5282376;27;20354;-84
2024/04/09 10:24:01;;;;;;;0.50;0.30;;;8.90;42.30;;;;;;5295711;27;20375;-84
2024/04/09 10:26:29;;;;;;;0.53;0.30;;;9.10;90.70;;;;;;5312789;27;20347;-85
2024/04/09 10:29:05;;;;;;;0.80;0.50;;;8.80;78.30;;;;;;5314318;27;20733;-84
2024/04/09 10:31:31;;;;;;;0.50;0.30;;;9.30;83.10;;;;;;5314526;26;20794;-85
2024/04/09 10:33:58;;;;;;;0.50;0.30;;;8.50;31.80;;;;;;5314373;27;20347;-84
2024/04/09 10:36:23;;;;;;;0.90;0.30;;;9.30;58.20;;;;;;5315160;26;20331;-84
2024/04/09 10:38:50;;;;;;;0.73;0.40;;;8.80;84.10;;;;;;5316171;27;20839;-85
2024/04/09 10:41:15;;;;;;;1.58;0.70;;;8.90;79.90;;;;;;5313095;26;20696;-83
2024/04/09 10:43:41;;;;;;;0.90;0.50;;;8.90;86.00;;;;;;5315233;27;20371;-83
2024/04/09 10:46:07;;;;;;;0.80;0.40;;;9.00;63.70;;;;;;5314782;26;20374;-84
2024/04/09 10:48:32;;;;;;;0.65;0.45;;;8.60;99.90;;;;;;5316324;26;20323;-86
2024/04/09 10:50:59;;;;;;;0.90;0.50;;;9.50;99.90;;;;;;5313696;27;20839;-84
2024/04/09 10:53:24;;;;;;;0.70;0.60;;;9.10;99.90;;;;;;5313328;26;20371;-83
2024/04/09 10:56:00;;;;;;;1.40;0.50;;;9.30;99.90;;;;;;5313901;27;20343;-83
2024/04/09 10:58:25;;;;;;;2.20;0.50;;;9.00;99.90;;;;;;5315885;26;20381;-83
2024/04/09 11:00:51;;;;;;;1.80;0.60;;;9.10;99.90;;;;;;5316551;27;20839;-84
2024/04/09 11:03:21;;;;;;;0.80;0.40;;;9.50;99.90;;;;;;5321879;26;20380;-85
2024/04/09 11:05:51;;;;;;;1.55;0.50;;;9.30;99.90;;;;;;5319373;26;20361;-84
2024/04/09 11:08:28;;;;;;;1.00;0.60;;;9.60;99.90;;;;;;5317738;26;20378;-83
2024/04/09 11:10:54;;;;;;;0.60;0.50;;;;;;;;;;5324236;26;20351;-84
2024/04/09 11:13:20;;;;;;;0.63;0.60;;;9.50;99.90;;;;;;5319681;26;20444;-83
2024/04/09 11:15:46;;;;;;;1.70;0.90;;;8.80;99.90;;;;;;5316851;26;20351;-83
2024/04/09 11:18:19;;;;;;;0.80;0.60;;;9.20;99.90;;;;;;5317685;27;20327;-83
2024/04/09 11:21:00;;;;;;;0.70;0.70;;;9.50;99.90;;;;;;5315535;27;20368;-82
2024/04/09 11:23:26;;;;;;;3.13;0.80;;;9.10;99.90;;;;;;5307546;26;20345;-84
2024/04/09 11:25:53;;;;;;;1.42;0.80;;;9.80;99.90;;;;;;5281605;27;20346;-83
2024/04/09 11:28:19;;;;;;;1.80;0.80;;;;;;;;;;5280385;27;20435;-85
2024/04/09 11:30:50;;;;;;;1.05;0.80;;;9.10;99.90;;;;;;5282115;27;20338;-82
2024/04/09 11:33:16;;;;;;;1.30;0.98;;;9.70;99.90;;;;;;5281309;27;20390;-83
2024/04/09 11:35:42;;;;;;;0.70;0.60;;;9.20;99.90;;;;;;5280725;27;20718;-83
2024/04/09 11:38:09;;;;;;;1.30;0.70;;;9.40;99.90;;;;;;5281880;27;20459;-84
2024/04/09 11:40:35;;;;;;;2.15;0.90;;;9.20;99.90;;;;;;5279859;27;20405;-85
2024/04/09 11:43:01;;;;;;;1.70;1.10;;;9.50;99.90;;;;;;5278019;27;20366;-84
2024/04/09 11:45:33;;;;;;;1.50;0.70;;;9.40;99.90;;;;;;5281315;27;20431;-84
2024/04/09 11:47:59;;;;;;;1.20;0.60;;;9.40;99.90;;;;;;5279355;27;20330;-83
2024/04/09 11:50:26;;;;;;;2.60;0.60;;;8.90;99.90;;;;;;5279342;27;20338;-82
2024/04/09 11:52:52;;;;;;;2.28;0.70;;;9.00;99.90;;;;;;5284328;27;20342;-82
2024/04/09 11:55:18;;;;;;;3.08;0.60;;;9.20;99.90;;;;;;5288087;27;20390;-82
2024/04/09 11:57:45;;;;;;;1.50;0.90;;;9.40;99.90;;;;;;5277707;27;20369;-83
2024/04/09 12:00:12;;;;;;;2.30;0.70;;;9.40;99.90;;;;;;5281537;27;20591;-82
2024/04/09 12:02:42;;;;;;;0.90;0.50;;;9.40;99.90;;;;;;5277654;27;20453;-83
2024/04/09 12:05:12;;;;;;;1.10;0.60;;;10.40;99.90;;;;;;5280200;27;21268;-84
2024/04/09 12:07:37;;;;;;;2.07;0.80;;;9.10;99.90;;;;;;5280027;27;20386;-82
2024/04/09 12:10:07;;;;;;;1.48;0.50;;;10.00;99.90;;;;;;5280608;27;20338;-82
2024/04/09 12:12:33;;;;;;;0.90;0.40;;;9.90;99.90;;;;;;5278832;27;20370;-83
2024/04/09 12:14:59;;;;;;;0.80;0.40;;;10.30;99.90;;;;;;5279178;27;20397;-83
2024/04/09 12:17:24;;;;;;;1.40;0.50;;;9.60;99.90;;;;;;5278788;27;20410;-84
2024/04/09 12:19:58;;;;;;;1.38;0.60;;;9.90;99.90;;;;;;5277896;27;20345;-86
2024/04/09 12:22:25;;;;;;;1.48;0.52;;;;;;;;;;5277834;27;20381;-83
2024/04/09 12:24:51;;;;;;;1.52;0.85;;;;;;;;;;5309564;27;20339;-83
2024/04/09 12:27:17;;;;;;;1.13;0.50;;;7.80;99.90;;;;;;5311509;27;20344;-83
2024/04/09 12:29:45;;;;;;;0.90;0.50;;;10.70;99.90;;;;;;5312290;26;20367;-85
2024/04/09 12:32:10;;;;;;;0.73;0.50;;;9.60;99.90;;;;;;5310534;26;20343;-83
2024/04/09 12:34:38;;;;;;;2.03;0.60;;;9.70;99.90;;;;;;5311181;27;21049;-83
2024/04/09 12:37:05;;;;;;;2.22;0.70;;;10.20;99.90;;;;;;5312878;26;20370;-82
2024/04/09 12:39:30;;;;;;;0.80;0.60;;;9.80;99.90;;;;;;5315336;27;20891;-83
2024/04/09 12:41:58;;;;;;;1.27;0.68;;;9.70;99.90;;;;;;5312062;26;20355;-84
2024/04/09 12:44:23;;;;;;;0.70;0.40;;;9.80;99.90;;;;;;5312017;26;20378;-83
2024/04/09 12:46:50;;;;;;;1.60;0.50;;;;;;;;;;5309969;27;20847;-85
2024/04/09 12:49:23;;;;;;;1.30;0.60;;;10.40;99.90;;;;;;5312696;26;20343;-84
2024/04/09 12:51:49;;;;;;;2.67;0.70;;;;;;;;;;5312977;26;20399;-83
2024/04/09 12:54:15;;;;;;;1.50;0.60;;;9.30;99.90;;;;;;5316928;27;20350;-83
2024/04/09 12:56:40;;;;;;;2.72;0.70;;;9.90;99.90;;;;;;5309381;27;20356;-84